Time;durP1;ratioP1;P1;durP2;ratioP2;P2;SDS_P1;SDS_P2;PMS_P1;PMS_P2;Temp;Humidity;BMP_temperature;BMP_pressure;BME280_temperature;BME280_humidity;BME280_pressure;Samples;Min_cycle;Max_cycle;Signal;HPM_P1;HPM_P2
2023/10/12 00:02:09;;;;;;;19.15;11.73;;;16.10;99.90;;;;;;5046270;28;20049;-79
2023/10/12 00:04:46;;;;;;;20.70;10.73;;;16.10;99.90;;;;;;5065485;28;20101;-80
2023/10/12 00:07:15;;;;;;;19.58;10.05;;;16.10;99.90;;;;;;5065651;28;20066;-82
2023/10/12 00:09:48;;;;;;;18.70;10.73;;;16.10;99.90;;;;;;5066130;28;20780;-82
2023/10/12 00:12:23;;;;;;;20.02;10.23;;;16.20;99.90;;;;;;5065799;28;20037;-80
2023/10/12 00:14:49;;;;;;;22.10;10.15;;;16.20;99.90;;;;;;5065504;28;20047;-81
2023/10/12 00:17:18;;;;;;;18.95;10.13;;;16.20;99.90;;;;;;5065930;28;20043;-82
2023/10/12 00:19:44;;;;;;;22.42;11.00;;;16.20;99.90;;;;;;5067084;28;20104;-83
2023/10/12 00:22:11;;;;;;;19.60;10.40;;;16.20;99.90;;;;;;5065865;28;20119;-81
2023/10/12 00:24:38;;;;;;;19.92;10.10;;;16.30;99.90;;;;;;5058393;28;20041;-81
2023/10/12 00:27:05;;;;;;;17.50;9.55;;;16.40;99.90;;;;;;5045958;28;20501;-83
2023/10/12 00:29:32;;;;;;;21.83;11.50;;;16.40;99.90;;;;;;5046635;28;20056;-84
2023/10/12 00:31:59;;;;;;;19.88;11.48;;;16.40;99.90;;;;;;5052767;28;20025;-82
2023/10/12 00:34:27;;;;;;;24.38;10.80;;;16.50;99.90;;;;;;5066422;28;20078;-81
2023/10/12 00:36:53;;;;;;;19.60;10.77;;;16.50;99.90;;;;;;5065109;28;20043;-82
2023/10/12 00:39:27;;;;;;;23.45;11.30;;;16.50;99.90;;;;;;5067057;28;20028;-84
2023/10/12 00:41:55;;;;;;;16.35;10.05;;;16.50;99.90;;;;;;5065430;28;20093;-84
2023/10/12 00:44:26;;;;;;;19.25;10.38;;;16.60;99.90;;;;;;5066604;28;20028;-83
2023/10/12 00:49:27;;;;;;;16.08;9.50;;;16.60;99.90;;;;;;5065741;28;20173;-84
2023/10/12 00:52:13;;;;;;;23.58;8.65;;;16.60;99.90;;;;;;5048883;28;20025;-82
2023/10/12 00:57:05;;;;;;;18.27;8.68;;;16.60;99.90;;;;;;5065198;28;20035;-85
2023/10/12 00:59:33;;;;;;;17.02;8.75;;;16.70;99.90;;;;;;5047809;28;20482;-82
2023/10/12 01:02:00;;;;;;;22.50;9.23;;;16.70;99.90;;;;;;5065052;28;20028;-80
2023/10/12 01:04:27;;;;;;;19.00;8.63;;;16.70;99.90;;;;;;5064621;28;20028;-84
2023/10/12 01:06:59;;;;;;;19.20;8.60;;;16.70;99.90;;;;;;5062067;28;20803;-81
2023/10/12 01:09:39;;;;;;;20.30;8.80;;;16.70;99.90;;;;;;5066802;28;20028;-83
2023/10/12 01:12:14;;;;;;;17.48;8.77;;;16.70;99.90;;;;;;5065136;28;20016;-83
2023/10/12 01:14:47;;;;;;;18.35;8.90;;;16.80;99.90;;;;;;5064919;28;20075;-85
2023/10/12 01:17:29;;;;;;;16.73;9.20;;;16.80;99.90;;;;;;5065320;28;20145;-79
2023/10/12 01:19:58;;;;;;;17.73;8.73;;;16.80;99.90;;;;;;5065985;28;20020;-83
2023/10/12 01:22:26;;;;;;;13.18;8.90;;;16.80;99.90;;;;;;5064557;28;20023;-81
2023/10/12 01:27:27;;;;;;;19.25;8.88;;;16.90;99.90;;;;;;5065418;28;20024;-84
2023/10/12 01:29:54;;;;;;;22.45;10.52;;;16.90;99.90;;;;;;5064525;28;20078;-79
2023/10/12 01:32:21;;;;;;;19.08;10.20;;;16.90;99.90;;;;;;5064853;28;20105;-81
2023/10/12 01:34:52;;;;;;;15.38;9.10;;;16.90;99.90;;;;;;5045750;28;20037;-80
2023/10/12 01:37:27;;;;;;;;;;;16.90;99.90;;;;;;5045304;28;20087;-83
2023/10/12 01:40:22;;;;;;;14.02;8.60;;;16.90;99.90;;;;;;5046382;28;20289;-82
2023/10/12 01:50:39;;;;;;;18.23;8.63;;;17.00;99.90;;;;;;5052274;28;20127;-81
2023/10/12 01:53:25;;;;;;;17.75;9.10;;;17.00;99.90;;;;;;5056256;28;20116;-83
2023/10/12 01:55:52;;;;;;;16.13;8.57;;;17.00;99.90;;;;;;5066588;28;20044;-84
2023/10/12 01:58:21;;;;;;;14.75;8.07;;;17.00;99.90;;;;;;5066272;28;20048;-84
2023/10/12 02:00:53;;;;;;;14.63;8.07;;;17.00;99.90;;;;;;5066576;28;20032;-84
2023/10/12 02:03:32;;;;;;;13.75;7.65;;;17.00;99.90;;;;;;5047563;28;20028;-81
2023/10/12 02:06:13;;;;;;;11.73;6.70;;;17.00;99.90;;;;;;5065705;28;20021;-83
2023/10/12 02:08:40;;;;;;;10.02;6.45;;;17.00;99.90;;;;;;5066500;28;20035;-82
2023/10/12 02:11:11;;;;;;;17.63;7.05;;;17.00;99.90;;;;;;5066137;28;20518;-81
2023/10/12 02:13:38;;;;;;;14.27;7.15;;;17.10;99.90;;;;;;5043801;28;20037;-79
2023/10/12 02:16:05;;;;;;;17.52;7.88;;;17.10;99.90;;;;;;5045591;28;20037;-80
2023/10/12 02:18:34;;;;;;;15.68;8.90;;;17.10;99.90;;;;;;5045662;28;20032;-82
2023/10/12 02:23:39;;;;;;;18.42;9.85;;;17.00;99.90;;;;;;5058634;28;20028;-82
2023/10/12 02:34:17;;;;;;;16.52;8.15;;;17.10;99.90;;;;;;5064465;28;20210;-80
2023/10/12 02:39:38;;;;;;;21.25;7.68;;;17.10;99.90;;;;;;5044814;28;20064;-81
2023/10/12 02:47:24;;;;;;;18.92;8.40;;;17.10;99.90;;;;;;5065262;28;20044;-82
2023/10/12 02:49:51;;;;;;;15.80;7.70;;;17.10;99.90;;;;;;5058054;28;20033;-80
2023/10/12 02:52:18;;;;;;;15.63;7.75;;;17.10;99.90;;;;;;5060831;28;20121;-81
2023/10/12 02:54:51;;;;;;;14.98;8.40;;;17.10;99.90;;;;;;5068453;28;20391;-81
2023/10/12 02:57:22;;;;;;;15.60;8.25;;;17.10;99.90;;;;;;5049941;28;20036;-79
2023/10/12 02:59:57;;;;;;;21.80;8.13;;;17.10;99.90;;;;;;5049384;28;20033;-80
2023/10/12 03:02:32;;;;;;;24.30;8.60;;;17.10;99.90;;;;;;5061671;28;20036;-80
2023/10/12 03:05:08;;;;;;;18.75;7.95;;;17.10;99.90;;;;;;5068049;28;20508;-77
2023/10/12 03:07:39;;;;;;;15.10;7.55;;;17.10;99.90;;;;;;5038169;28;20028;-79
2023/10/12 03:10:07;;;;;;;19.33;7.63;;;17.10;99.90;;;;;;5065625;28;20024;-79
2023/10/12 03:12:41;;;;;;;18.27;8.45;;;17.10;99.90;;;;;;5067896;28;20492;-80
2023/10/12 03:15:13;;;;;;;13.93;8.10;;;17.10;99.90;;;;;;5057845;28;20036;-80
2023/10/12 03:17:52;;;;;;;17.40;7.75;;;17.10;99.90;;;;;;5068283;28;20028;-79
2023/10/12 03:20:24;;;;;;;18.05;7.85;;;17.10;99.90;;;;;;5050608;28;20029;-80
2023/10/12 03:22:53;;;;;;;18.05;7.95;;;17.10;99.90;;;;;;5068628;28;20406;-79
2023/10/12 03:26:18;;;;;;;15.73;7.95;;;17.20;99.90;;;;;;5066169;28;20140;-80
2023/10/12 03:28:12;;;;;;;26.13;9.00;;;17.20;99.90;;;;;;5047559;28;20043;-80
2023/10/12 03:30:43;;;;;;;25.02;8.90;;;17.20;99.90;;;;;;5067108;28;20024;-80
2023/10/12 03:33:14;;;;;;;;;;;17.20;99.90;;;;;;5068186;28;20024;-79
2023/10/12 03:35:51;;;;;;;19.30;7.72;;;17.20;99.90;;;;;;5061907;28;19932;-79
2023/10/12 03:38:19;;;;;;;18.30;7.90;;;17.20;99.90;;;;;;5037276;28;20056;-78
2023/10/12 03:43:25;;;;;;;15.75;8.02;;;17.20;99.90;;;;;;5067037;28;20028;-78
2023/10/12 03:46:07;;;;;;;20.77;8.93;;;17.20;99.90;;;;;;5066549;28;20028;-79
2023/10/12 03:49:03;;;;;;;20.65;8.95;;;17.20;99.90;;;;;;5066874;28;20029;-79
2023/10/12 03:51:41;;;;;;;22.60;9.07;;;17.20;99.90;;;;;;5066427;28;20504;-78
2023/10/12 03:56:51;;;;;;;22.33;9.70;;;17.20;99.90;;;;;;5067337;28;20077;-78
2023/10/12 03:59:28;;;;;;;27.83;9.57;;;17.20;99.90;;;;;;5065814;28;20037;-79
2023/10/12 04:01:54;;;;;;;26.52;10.52;;;17.20;99.90;;;;;;5066407;28;20016;-80
2023/10/12 04:04:34;;;;;;;22.15;10.77;;;17.30;99.90;;;;;;5066227;28;20032;-77
2023/10/12 04:09:42;;;;;;;17.95;9.07;;;17.30;99.90;;;;;;5066779;28;20523;-77
2023/10/12 04:14:44;;;;;;;18.60;8.40;;;17.20;99.90;;;;;;5065760;28;20132;-79
2023/10/12 04:17:40;;;;;;;26.52;8.48;;;17.20;99.90;;;;;;5065706;28;20036;-77
2023/10/12 04:22:41;;;;;;;22.88;8.43;;;17.20;99.90;;;;;;5047496;28;20055;-79
2023/10/12 04:25:22;;;;;;;22.02;8.55;;;17.20;99.90;;;;;;5064821;28;20049;-78
2023/10/12 04:27:50;;;;;;;21.35;8.68;;;17.20;99.90;;;;;;5060545;28;20421;-77
2023/10/12 04:33:17;;;;;;;20.27;8.23;;;17.10;99.90;;;;;;5026558;28;20044;-79
2023/10/12 04:43:37;;;;;;;23.77;7.85;;;17.20;99.90;;;;;;5061761;28;20089;-81
2023/10/12 04:48:41;;;;;;;20.17;7.20;;;17.20;99.90;;;;;;5067174;28;20040;-82
2023/10/12 04:51:07;;;;;;;20.75;6.85;;;17.20;99.90;;;;;;5063991;28;20728;-82
2023/10/12 04:54:17;;;;;;;23.25;7.53;;;17.10;99.90;;;;;;5067427;28;20090;-81
2023/10/12 04:56:23;;;;;;;20.52;6.78;;;17.10;99.90;;;;;;5053887;28;20044;-81
2023/10/12 04:58:59;;;;;;;24.27;6.65;;;17.10;99.90;;;;;;5066888;28;20107;-82
2023/10/12 05:01:41;;;;;;;21.60;6.35;;;17.10;99.90;;;;;;5066302;28;20572;-82
2023/10/12 05:06:35;;;;;;;19.05;6.55;;;17.10;99.90;;;;;;5066144;28;20107;-84
2023/10/12 05:09:10;;;;;;;19.83;7.30;;;17.10;99.90;;;;;;5065719;28;20080;-80
2023/10/12 05:11:37;;;;;;;27.48;7.68;;;17.10;99.90;;;;;;5065047;28;20533;-81
2023/10/12 05:14:14;;;;;;;24.58;6.40;;;17.10;99.90;;;;;;5036162;28;20029;-81
2023/10/12 05:16:42;;;;;;;21.15;7.07;;;17.10;99.90;;;;;;5062341;28;20064;-81
2023/10/12 05:19:10;;;;;;;20.25;7.72;;;17.10;99.90;;;;;;5064371;28;20027;-80
2023/10/12 05:21:36;;;;;;;26.13;6.45;;;17.20;99.90;;;;;;5065381;28;20036;-80
2023/10/12 05:24:02;;;;;;;18.80;6.45;;;17.20;99.90;;;;;;5045677;28;20127;-81
2023/10/12 05:26:27;;;;;;;20.35;6.63;;;17.20;99.90;;;;;;5064909;28;20040;-81
2023/10/12 05:28:58;;;;;;;22.33;6.30;;;17.20;99.90;;;;;;5055089;28;20147;-80
2023/10/12 05:31:27;;;;;;;18.90;6.37;;;17.20;99.90;;;;;;5047141;28;20499;-79
2023/10/12 05:36:42;;;;;;;22.88;6.13;;;17.30;99.90;;;;;;5064341;28;20047;-81
2023/10/12 05:39:13;;;;;;;21.83;7.03;;;17.30;99.90;;;;;;5065320;28;20540;-81
2023/10/12 05:41:40;;;;;;;19.48;7.07;;;17.30;99.90;;;;;;5065210;28;20101;-82
2023/10/12 05:44:08;;;;;;;14.85;6.18;;;17.30;99.90;;;;;;5065049;28;20203;-81
2023/10/12 05:46:35;;;;;;;19.13;6.50;;;17.30;99.90;;;;;;5064995;28;20056;-81
2023/10/12 05:49:03;;;;;;;15.77;6.53;;;17.30;99.90;;;;;;5065807;28;20030;-81
2023/10/12 05:51:28;;;;;;;16.25;5.97;;;17.30;99.90;;;;;;5065577;28;20051;-82
2023/10/12 05:54:01;;;;;;;18.02;5.75;;;17.30;99.90;;;;;;5066167;28;20032;-83
2023/10/12 05:56:29;;;;;;;15.20;5.30;;;17.40;99.90;;;;;;5047804;28;20527;-81
2023/10/12 05:58:55;;;;;;;16.38;5.30;;;17.30;99.90;;;;;;5051770;28;20116;-84
2023/10/12 06:01:33;;;;;;;11.07;4.32;;;17.30;99.90;;;;;;5059757;28;20127;-86
2023/10/12 06:03:59;;;;;;;10.95;4.25;;;17.30;99.90;;;;;;5066222;28;20036;-84
2023/10/12 06:06:25;;;;;;;14.57;4.90;;;17.30;99.90;;;;;;5065974;28;20029;-83
2023/10/12 06:08:53;;;;;;;12.88;4.15;;;17.30;99.90;;;;;;5047759;28;20025;-82
2023/10/12 06:11:25;;;;;;;5.50;3.20;;;17.30;99.90;;;;;;5064123;28;20043;-80
2023/10/12 06:13:52;;;;;;;4.70;2.92;;;17.30;99.90;;;;;;5064005;28;20115;-81
2023/10/12 06:16:20;;;;;;;8.35;3.00;;;17.30;99.90;;;;;;5065342;28;20032;-83
2023/10/12 06:18:46;;;;;;;6.18;2.90;;;17.30;99.90;;;;;;5059719;28;20834;-83
2023/10/12 06:21:19;;;;;;;6.57;3.10;;;17.30;99.90;;;;;;5051169;28;20024;-82
2023/10/12 06:23:49;;;;;;;5.18;3.00;;;17.30;99.90;;;;;;5069211;28;20115;-83
2023/10/12 06:26:30;;;;;;;11.25;3.85;;;17.30;99.90;;;;;;5069786;28;20063;-84
2023/10/12 06:28:57;;;;;;;5.85;3.10;;;17.40;99.90;;;;;;5069912;28;20043;-84
2023/10/12 06:31:25;;;;;;;9.18;3.08;;;17.40;99.90;;;;;;5068752;28;20462;-81
2023/10/12 06:33:52;;;;;;;5.40;2.45;;;17.40;99.90;;;;;;5067683;28;20036;-80
2023/10/12 06:36:22;;;;;;;5.82;2.83;;;17.40;99.90;;;;;;5068676;28;20098;-82
2023/10/12 06:46:48;;;;;;;4.47;1.83;;;17.50;99.90;;;;;;5068662;28;20043;-83
2023/10/12 06:49:29;;;;;;;3.40;1.85;;;17.50;99.90;;;;;;5051645;28;20110;-83
2023/10/12 06:52:01;;;;;;;5.70;2.10;;;17.50;99.90;;;;;;5046945;28;20506;-82
2023/10/12 07:00:33;;;;;;;6.53;3.17;;;17.60;99.90;;;;;;5066718;28;20024;-83
2023/10/12 07:02:34;;;;;;;5.80;3.10;;;17.60;99.90;;;;;;5056144;28;20057;-83
2023/10/12 07:05:03;;;;;;;8.43;3.72;;;17.60;99.90;;;;;;5048566;28;20024;-81
2023/10/12 07:07:36;;;;;;;13.80;4.60;;;17.60;99.90;;;;;;5042158;28;20039;-79
2023/10/12 07:10:13;;;;;;;11.52;4.30;;;17.60;99.90;;;;;;5065347;28;20502;-85
2023/10/12 07:12:49;;;;;;;12.10;5.03;;;17.60;99.90;;;;;;5066063;28;20025;-82
2023/10/12 07:15:23;;;;;;;14.68;4.28;;;17.70;99.90;;;;;;5065644;28;20047;-82
2023/10/12 07:17:50;;;;;;;11.00;3.85;;;17.70;99.90;;;;;;5060242;28;20078;-82
2023/10/12 07:20:29;;;;;;;8.10;3.58;;;17.70;99.90;;;;;;5038542;28;20032;-82
2023/10/12 07:22:55;;;;;;;10.43;3.00;;;17.70;99.90;;;;;;5067341;28;20185;-81
2023/10/12 07:25:23;;;;;;;7.78;3.00;;;17.70;99.90;;;;;;5063587;28;20093;-79
2023/10/12 07:27:54;;;;;;;7.63;2.10;;;17.70;99.90;;;;;;5064624;28;20025;-78
2023/10/12 07:30:36;;;;;;;5.90;2.35;;;17.80;99.90;;;;;;5060952;28;20081;-81
2023/10/12 07:33:07;;;;;;;9.20;2.63;;;17.80;99.90;;;;;;5066684;28;20021;-80
2023/10/12 07:35:36;;;;;;;8.68;3.10;;;17.70;99.90;;;;;;5064938;28;20078;-80
2023/10/12 07:38:12;;;;;;;8.68;2.60;;;17.80;99.90;;;;;;5047115;28;20064;-81
2023/10/12 07:40:56;;;;;;;9.07;3.22;;;17.90;99.90;;;;;;5065251;28;20051;-81
2023/10/12 07:43:24;;;;;;;7.25;3.40;;;17.90;99.90;;;;;;5061960;28;20020;-81
2023/10/12 07:45:50;;;;;;;12.13;3.85;;;18.00;99.90;;;;;;5040301;28;20025;-80
2023/10/12 07:48:40;;;;;;;10.60;3.78;;;18.00;99.90;;;;;;5064957;28;20025;-82
2023/10/12 07:51:19;;;;;;;10.00;4.43;;;18.10;99.90;;;;;;5061838;28;20526;-81
2023/10/12 07:53:56;;;;;;;11.77;4.53;;;18.10;99.90;;;;;;5062993;28;20369;-79
2023/10/12 07:56:22;;;;;;;14.95;5.35;;;18.10;99.90;;;;;;5065095;28;20525;-81
2023/10/12 07:58:57;;;;;;;15.75;5.57;;;18.10;99.90;;;;;;5063348;28;20048;-80
2023/10/12 08:01:39;;;;;;;16.70;5.05;;;18.10;99.90;;;;;;5063535;28;20119;-82
2023/10/12 08:04:57;;;;;;;13.85;5.43;;;18.10;99.90;;;;;;5055569;28;20033;-80
2023/10/12 08:06:56;;;;;;;15.68;5.93;;;18.20;99.90;;;;;;5042881;28;20049;-82
2023/10/12 08:11:51;;;;;;;16.08;5.75;;;18.30;99.90;;;;;;5053652;28;20051;-82
2023/10/12 08:19:43;;;;;;;21.30;5.78;;;18.40;99.90;;;;;;5025291;28;20036;-81
2023/10/12 08:22:31;;;;;;;15.85;5.70;;;18.50;99.90;;;;;;5056562;28;20451;-79
2023/10/12 08:24:58;;;;;;;13.82;5.38;;;18.50;99.90;;;;;;5055962;28;20094;-80
2023/10/12 08:27:25;;;;;;;18.55;5.85;;;18.60;99.90;;;;;;5058904;28;20105;-80
2023/10/12 08:37:26;;;;;;;13.85;4.05;;;18.80;99.90;;;;;;5063071;28;20032;-81
2023/10/12 08:40:06;;;;;;;16.20;4.88;;;18.90;99.90;;;;;;5063209;28;20041;-79
2023/10/12 08:44:59;;;;;;;16.58;4.20;;;18.90;99.90;;;;;;5061973;28;20414;-78
2023/10/12 08:47:31;;;;;;;11.65;4.20;;;19.00;99.90;;;;;;5063956;28;20024;-79
2023/10/12 08:52:28;;;;;;;18.27;4.77;;;19.10;99.90;;;;;;5063837;28;20038;-80
2023/10/12 08:54:58;;;;;;;14.35;3.72;;;19.10;99.90;;;;;;5063621;28;20491;-80
2023/10/12 08:57:38;;;;;;;11.52;3.80;;;19.10;99.90;;;;;;5051352;28;20572;-79
2023/10/12 09:00:25;;;;;;;8.40;3.53;;;19.20;99.90;;;;;;5061637;28;20032;-80
2023/10/12 09:02:58;;;;;;;14.70;3.83;;;19.40;99.90;;;;;;5057952;28;20020;-80
2023/10/12 09:05:25;;;;;;;14.60;3.20;;;19.40;99.90;;;;;;5064188;28;20032;-81
2023/10/12 09:08:08;;;;;;;11.35;3.10;;;19.50;99.90;;;;;;5059584;28;20025;-79
2023/10/12 09:10:54;;;;;;;13.98;3.72;;;19.50;99.90;;;;;;5057641;28;20055;-78
2023/10/12 09:13:21;;;;;;;13.70;2.85;;;19.60;99.90;;;;;;5062148;28;20123;-78
2023/10/12 09:15:54;;;;;;;8.63;2.78;;;19.70;99.90;;;;;;5043029;28;20202;-80
2023/10/12 09:18:21;;;;;;;9.75;2.92;;;19.80;99.90;;;;;;5060817;28;20028;-80
2023/10/12 09:21:16;;;;;;;10.55;2.30;;;19.70;99.90;;;;;;5062486;28;20044;-80
2023/10/12 09:31:16;;;;;;;8.00;2.60;;;20.20;99.90;;;;;;5056922;28;20181;-78
2023/10/12 09:36:27;;;;;;;9.07;2.25;;;20.50;99.90;;;;;;5061333;28;20093;-79
2023/10/12 09:39:00;;;;;;;11.50;2.13;;;20.50;99.90;;;;;;5059641;28;20051;-79
2023/10/12 09:41:32;;;;;;;11.07;2.47;;;20.50;99.90;;;;;;5062482;28;20469;-80
2023/10/12 09:44:00;;;;;;;12.27;2.28;;;20.50;99.90;;;;;;5049727;28;20016;-79
2023/10/12 09:46:31;;;;;;;11.65;2.22;;;20.70;99.90;;;;;;5062397;28;20031;-80
2023/10/12 09:49:06;;;;;;;5.85;2.10;;;20.70;99.90;;;;;;5059102;28;20043;-82
2023/10/12 09:51:45;;;;;;;7.65;1.92;;;20.80;99.90;;;;;;5055224;28;20032;-80
2023/10/12 09:56:57;;;;;;;10.20;2.08;;;20.60;99.90;;;;;;4773136;22;10001338;-80
2023/10/12 09:59:27;;;;;;;6.32;1.75;;;20.60;99.90;;;;;;4991212;28;20461;-82
2023/10/12 10:02:01;;;;;;;6.28;1.98;;;20.70;99.90;;;;;;4996778;28;20029;-81
2023/10/12 10:04:27;;;;;;;6.57;1.77;;;20.80;99.90;;;;;;4992518;28;21149;-80
2023/10/12 10:07:15;;;;;;;9.63;1.70;;;21.00;99.90;;;;;;4981138;28;20033;-86
2023/10/12 11:12:25;;;;;;;6.18;1.25;;;25.00;99.90;;;;;;5047293;28;20467;-87
2023/10/12 11:14:58;;;;;;;5.88;2.00;;;24.60;99.90;;;;;;5046383;28;20032;-87
2023/10/12 11:17:26;;;;;;;9.98;2.67;;;24.30;99.90;;;;;;5041545;28;20086;-86
2023/10/12 11:19:52;;;;;;;4.80;1.23;;;24.10;99.90;;;;;;5060212;28;20043;-87
2023/10/12 11:22:19;;;;;;;5.93;1.50;;;24.00;99.90;;;;;;5045980;28;20136;-87
2023/10/12 11:24:49;;;;;;;2.85;0.85;;;23.90;99.90;;;;;;5050218;28;20036;-86
2023/10/12 11:27:31;;;;;;;4.55;1.20;;;23.90;99.90;;;;;;5047788;28;20035;-87
2023/10/12 11:30:00;;;;;;;3.22;0.90;;;24.30;99.90;;;;;;5048276;28;20025;-89
2023/10/12 11:32:28;;;;;;;4.32;0.90;;;24.60;99.90;;;;;;5056629;28;20393;-89
2023/10/12 11:34:59;;;;;;;5.28;1.05;;;25.00;99.90;;;;;;5046179;28;20036;-88
2023/10/12 11:52:33;;;;;;;2.72;0.90;;;25.30;99.90;;;;;;5106246;27;20968;-72
2023/10/12 11:55:19;;;;;;;4.43;1.10;;;25.70;99.90;;;;;;5081660;28;20102;-72
2023/10/12 11:57:54;;;;;;;7.45;1.15;;;25.50;99.90;;;;;;5085796;28;20028;-71
2023/10/12 12:00:26;;;;;;;4.45;1.10;;;25.10;99.90;;;;;;5086145;28;20168;-72
2023/10/12 12:02:57;;;;;;;4.72;1.30;;;24.90;99.90;;;;;;5078647;28;20118;-72
2023/10/12 12:05:29;;;;;;;2.65;0.98;;;24.80;99.90;;;;;;5069859;28;20126;-72
2023/10/12 12:07:56;;;;;;;4.82;1.23;;;24.70;99.90;;;;;;5078720;28;20099;-72
2023/10/12 12:10:27;;;;;;;2.88;1.00;;;24.80;99.90;;;;;;5078187;28;20028;-71
2023/10/12 12:12:57;;;;;;;5.82;1.20;;;24.80;99.90;;;;;;5067992;28;20043;-71
2023/10/12 12:15:24;;;;;;;5.95;1.23;;;24.30;99.90;;;;;;5075059;28;20028;-71
2023/10/12 12:17:51;;;;;;;6.65;1.40;;;24.00;99.90;;;;;;5081491;28;20027;-71
2023/10/12 12:20:21;;;;;;;7.32;1.30;;;24.00;99.90;;;;;;5073408;28;20051;-72
2023/10/12 12:22:48;;;;;;;5.15;1.23;;;24.10;99.90;;;;;;5077896;28;20477;-72
2023/10/12 12:25:31;;;;;;;8.95;1.20;;;24.20;99.90;;;;;;5079016;28;20195;-71
2023/10/12 12:28:04;;;;;;;5.32;1.50;;;24.30;99.90;;;;;;5075942;28;20077;-72
2023/10/12 12:30:34;;;;;;;7.75;1.40;;;24.40;99.90;;;;;;5077025;28;20039;-72
2023/10/12 12:33:00;;;;;;;7.38;1.30;;;24.50;99.90;;;;;;5076115;28;20050;-73
2023/10/12 12:35:29;;;;;;;4.57;1.23;;;24.50;99.90;;;;;;5074521;28;20024;-73
2023/10/12 12:38:05;;;;;;;7.32;1.35;;;24.40;99.90;;;;;;5077861;28;20100;-72
2023/10/12 12:40:40;;;;;;;6.07;1.15;;;24.40;99.90;;;;;;5074697;28;20597;-72
2023/10/12 12:43:08;;;;;;;5.03;1.30;;;24.40;99.90;;;;;;5080222;28;20411;-71
2023/10/12 12:45:37;;;;;;;5.75;1.20;;;24.30;99.90;;;;;;5071493;28;20522;-73
2023/10/12 12:48:04;;;;;;;3.63;1.13;;;24.20;99.90;;;;;;5078322;28;20057;-72
2023/10/12 12:50:30;;;;;;;7.38;1.38;;;24.00;99.90;;;;;;5083334;28;20039;-72
2023/10/12 12:52:57;;;;;;;4.78;1.35;;;23.70;99.90;;;;;;5078385;28;20062;-73
2023/10/12 12:55:27;;;;;;;6.75;1.50;;;23.50;99.90;;;;;;5073450;28;20024;-72
2023/10/12 12:57:56;;;;;;;3.78;0.98;;;23.10;99.90;;;;;;5079937;22;20065;-82
2023/10/12 13:00:22;;;;;;;6.95;1.73;;;22.90;99.90;;;;;;5061518;28;20033;-81
2023/10/12 13:02:48;;;;;;;6.53;1.30;;;22.60;99.90;;;;;;5061775;28;20525;-81
2023/10/12 13:05:14;;;;;;;5.68;1.42;;;22.50;99.90;;;;;;5063365;28;20028;-81
2023/10/12 13:07:41;;;;;;;7.65;1.13;;;22.30;99.90;;;;;;5060750;28;20024;-81
2023/10/12 13:10:11;;;;;;;7.03;1.55;;;22.30;99.90;;;;;;5061365;28;20093;-81
2023/10/12 13:12:37;;;;;;;5.80;1.45;;;22.50;99.90;;;;;;5061547;28;20054;-81
2023/10/12 13:15:03;;;;;;;7.28;1.58;;;22.70;99.90;;;;;;5062544;28;20056;-82
2023/10/12 13:17:31;;;;;;;5.07;1.08;;;23.00;99.90;;;;;;5061988;28;20064;-81
2023/10/12 13:19:59;;;;;;;5.22;1.05;;;23.10;99.90;;;;;;5060460;28;20037;-82
2023/10/12 13:22:26;;;;;;;5.97;1.00;;;23.20;99.90;;;;;;5060490;28;20596;-81
2023/10/12 13:24:56;;;;;;;5.45;1.35;;;23.20;99.90;;;;;;5061098;28;20123;-79
2023/10/12 13:27:27;;;;;;;11.07;4.93;;;23.00;99.90;;;;;;5050360;28;20532;-80
2023/10/12 13:30:02;;;;;;;24.55;12.85;;;22.90;99.90;;;;;;5051581;28;20726;-80
2023/10/12 13:32:28;;;;;;;7.00;4.03;;;22.70;99.90;;;;;;5061883;28;20063;-78
2023/10/12 13:34:57;;;;;;;8.80;6.13;;;22.60;99.90;;;;;;5058231;28;20060;-83
2023/10/12 13:37:30;;;;;;;6.32;1.40;;;22.50;99.90;;;;;;5058801;28;20021;-79
2023/10/12 13:39:59;;;;;;;4.50;1.50;;;22.40;99.90;;;;;;5059840;28;20090;-80
2023/10/12 13:42:28;;;;;;;6.73;3.43;;;22.30;99.90;;;;;;4356549;28;10000738;-79
2023/10/12 13:44:54;;;;;;;5.55;2.67;;;22.20;99.90;;;;;;5052107;28;20342;-81
2023/10/12 13:47:19;;;;;;;5.05;1.30;;;22.20;99.90;;;;;;5059502;28;20028;-83
2023/10/12 13:49:45;;;;;;;9.13;8.20;;;22.10;99.90;;;;;;5060899;28;20033;-81
2023/10/12 13:52:11;;;;;;;3.78;1.20;;;22.10;99.90;;;;;;5061844;28;20066;-81
2023/10/12 13:54:41;;;;;;;7.10;1.20;;;21.90;99.90;;;;;;5060230;28;20032;-81
2023/10/12 13:57:07;;;;;;;8.82;5.70;;;21.70;99.90;;;;;;5061323;28;20106;-81
2023/10/12 13:59:33;;;;;;;7.47;2.92;;;21.60;99.90;;;;;;5060723;28;20144;-81
2023/10/12 14:01:59;;;;;;;4.45;1.17;;;21.50;99.90;;;;;;5062575;28;20036;-80
2023/10/12 14:04:33;;;;;;;7.90;5.50;;;21.30;99.90;;;;;;5061793;28;20111;-80
2023/10/12 14:07:03;;;;;;;7.38;2.95;;;21.10;99.90;;;;;;5063679;28;20052;-81
2023/10/12 14:09:31;;;;;;;12.40;5.75;;;21.20;99.90;;;;;;5062912;28;20465;-81
2023/10/12 14:11:57;;;;;;;4.22;1.20;;;21.10;99.90;;;;;;5062294;28;20120;-81
2023/10/12 14:14:24;;;;;;;6.45;3.13;;;20.90;99.90;;;;;;5061343;28;20150;-78
2023/10/12 14:16:50;;;;;;;9.05;8.15;;;20.70;99.90;;;;;;5057283;28;20053;-81
2023/10/12 14:19:16;;;;;;;4.00;1.27;;;20.60;99.90;;;;;;5057533;28;20077;-81
2023/10/12 14:21:46;;;;;;;4.88;0.85;;;20.30;99.90;;;;;;5052058;28;20060;-79
2023/10/12 14:24:11;;;;;;;5.20;2.60;;;20.30;99.90;;;;;;5052249;28;20029;-82
2023/10/12 14:26:37;;;;;;;2.33;0.93;;;20.20;99.90;;;;;;5061017;28;20029;-81
2023/10/12 14:29:09;;;;;;;6.03;2.33;;;20.20;99.90;;;;;;5060901;28;20075;-80
2023/10/12 14:31:34;;;;;;;3.28;0.90;;;20.30;99.90;;;;;;5062450;28;20028;-80
2023/10/12 14:34:00;;;;;;;5.13;1.02;;;20.50;99.90;;;;;;5061712;28;20451;-80
2023/10/12 14:36:26;;;;;;;3.35;1.15;;;20.60;99.90;;;;;;5058806;28;20123;-80
2023/10/12 14:38:54;;;;;;;3.53;1.95;;;20.60;99.90;;;;;;5061149;28;20155;-82
2023/10/12 14:41:21;;;;;;;2.70;1.25;;;20.60;99.90;;;;;;5059005;28;20048;-85
2023/10/12 14:43:47;;;;;;;2.88;1.10;;;20.40;99.90;;;;;;5060151;28;20029;-83
2023/10/12 14:46:14;;;;;;;2.47;1.00;;;20.30;99.90;;;;;;5063243;28;20200;-81
2023/10/12 14:48:43;;;;;;;5.95;0.90;;;20.30;99.90;;;;;;5062305;28;20042;-84
2023/10/12 14:51:17;;;;;;;4.10;0.75;;;20.40;99.90;;;;;;5060577;28;20036;-85
2023/10/12 14:53:47;;;;;;;3.95;0.63;;;20.50;99.90;;;;;;5062025;28;20438;-82
2023/10/12 14:56:14;;;;;;;4.90;0.70;;;20.40;99.90;;;;;;5054264;28;20101;-82
2023/10/12 14:58:40;;;;;;;2.65;0.50;;;20.50;99.90;;;;;;5061754;28;20441;-81
2023/10/12 15:01:13;;;;;;;4.22;0.75;;;20.50;99.90;;;;;;5063125;28;20059;-84
2023/10/12 15:03:39;;;;;;;1.95;0.50;;;20.50;99.90;;;;;;5063727;28;20575;-83
2023/10/12 15:06:05;;;;;;;3.05;0.65;;;20.40;99.90;;;;;;5064656;28;20028;-84
2023/10/12 15:08:31;;;;;;;1.38;0.50;;;20.30;99.90;;;;;;5063521;28;20032;-84
2023/10/12 15:11:00;;;;;;;4.40;0.55;;;20.20;99.90;;;;;;5062815;28;20051;-83
2023/10/12 15:13:26;;;;;;;3.30;0.50;;;20.00;99.90;;;;;;5064641;28;20037;-83
2023/10/12 15:15:53;;;;;;;6.63;2.03;;;19.80;99.90;;;;;;5064164;28;20146;-82
2023/10/12 15:18:23;;;;;;;1.65;0.70;;;19.80;99.90;;;;;;5064893;28;20077;-82
2023/10/12 15:20:49;;;;;;;1.10;0.32;;;19.70;99.90;;;;;;5062615;28;20352;-82
2023/10/12 15:23:16;;;;;;;2.80;0.70;;;19.70;99.90;;;;;;5063910;28;20058;-81
2023/10/12 15:25:42;;;;;;;3.20;0.70;;;19.70;99.90;;;;;;5063224;28;20079;-80
2023/10/12 15:28:09;;;;;;;2.78;0.40;;;19.60;99.90;;;;;;5060471;28;20493;-80
2023/10/12 15:30:37;;;;;;;2.75;0.60;;;19.50;99.90;;;;;;5062500;28;20115;-76
2023/10/12 15:33:04;;;;;;;1.70;0.50;;;19.30;99.90;;;;;;5061353;28;20040;-76
2023/10/12 15:35:30;;;;;;;6.13;0.43;;;19.20;99.90;;;;;;5060880;28;20969;-77
2023/10/12 15:37:57;;;;;;;1.92;0.70;;;19.20;99.90;;;;;;5056537;28;20086;-77
2023/10/12 15:40:27;;;;;;;1.33;0.30;;;19.00;99.90;;;;;;5058668;28;20489;-77
2023/10/12 15:42:58;;;;;;;2.10;0.50;;;19.00;99.90;;;;;;5057615;28;20036;-77
2023/10/12 15:45:25;;;;;;;3.50;0.50;;;19.00;99.90;;;;;;5057295;28;20036;-76
2023/10/12 15:47:52;;;;;;;2.25;0.50;;;18.90;99.90;;;;;;5056625;28;20028;-77
2023/10/12 15:50:18;;;;;;;1.83;0.43;;;18.80;99.90;;;;;;5060027;28;20088;-77
2023/10/12 15:52:47;;;;;;;2.35;0.50;;;18.80;99.90;;;;;;5058040;28;20056;-76
2023/10/12 15:55:13;;;;;;;2.08;0.60;;;18.80;99.90;;;;;;5046579;28;20036;-76
2023/10/12 15:57:43;;;;;;;3.88;0.55;;;18.70;99.90;;;;;;5046473;28;20045;-77
2023/10/12 16:00:22;;;;;;;3.47;0.60;;;18.70;99.90;;;;;;5045971;28;20036;-77
2023/10/12 16:02:55;;;;;;;3.00;0.50;;;18.70;99.90;;;;;;5049595;28;20024;-75
2023/10/12 16:05:22;;;;;;;2.58;0.52;;;18.70;99.90;;;;;;5046151;28;20028;-77
2023/10/12 16:07:50;;;;;;;3.30;0.63;;;18.70;99.90;;;;;;5046234;28;20071;-76
2023/10/12 16:10:16;;;;;;;4.25;0.80;;;18.70;99.90;;;;;;5045925;28;20033;-76